Time;durP1;ratioP1;P1;durP2;ratioP2;P2;SDS_P1;SDS_P2;PMS_P1;PMS_P2;Temp;Humidity;BMP_temperature;BMP_pressure;BME280_temperature;BME280_humidity;BME280_pressure;Samples;Min_cycle;Max_cycle;Signal;HPM_P1;HPM_P2
2022/04/26 03:36:53;;;;;;;4.25;1.40;;;20.10;99.90;;;;;;5031097;28;20225;-71
2022/04/26 03:39:24;;;;;;;2.78;1.00;;;20.10;99.90;;;;;;5027128;28;20202;-70
2022/04/26 03:41:54;;;;;;;1.55;0.50;;;20.10;99.90;;;;;;5025425;28;20590;-71
2022/04/26 03:44:25;;;;;;;0.82;0.40;;;20.00;99.90;;;;;;5014222;28;20245;-71
2022/04/26 03:46:56;;;;;;;0.95;0.50;;;20.00;99.90;;;;;;5012300;28;20190;-71
2022/04/26 03:49:27;;;;;;;1.25;0.40;;;20.00;99.90;;;;;;5026774;28;20226;-71
2022/04/26 03:51:59;;;;;;;1.02;0.43;;;20.10;99.90;;;;;;5012985;28;20345;-73
2022/04/26 03:54:30;;;;;;;1.02;0.30;;;20.00;99.90;;;;;;5011531;28;20202;-83
2022/04/26 03:57:01;;;;;;;0.95;0.40;;;20.00;99.90;;;;;;5013711;28;20195;-73
2022/04/26 03:59:31;;;;;;;0.98;0.40;;;20.00;99.90;;;;;;5013301;28;20193;-71
2022/04/26 04:02:02;;;;;;;0.52;0.40;;;20.10;99.90;;;;;;5007105;28;20597;-72
2022/04/26 04:04:33;;;;;;;1.67;0.50;;;20.10;99.90;;;;;;5017521;28;20199;-70
2022/04/26 04:07:05;;;;;;;1.38;0.50;;;20.10;99.90;;;;;;5012932;28;20207;-71
2022/04/26 04:09:36;;;;;;;0.88;0.25;;;20.10;99.90;;;;;;5012005;28;20253;-71
2022/04/26 04:12:07;;;;;;;1.17;0.35;;;20.20;99.90;;;;;;5013477;28;20206;-70
2022/04/26 04:14:37;;;;;;;2.30;0.43;;;20.20;99.90;;;;;;5018981;28;20202;-71
2022/04/26 04:17:08;;;;;;;1.00;0.40;;;20.20;99.90;;;;;;5012865;28;20203;-71
2022/04/26 04:19:39;;;;;;;0.85;0.50;;;20.20;99.90;;;;;;5013532;28;20190;-73
2022/04/26 04:22:14;;;;;;;0.57;0.40;;;20.20;99.90;;;;;;5025539;28;20197;-73
2022/04/26 04:24:44;;;;;;;2.17;0.40;;;20.20;99.90;;;;;;5033424;28;20213;-73
2022/04/26 04:27:15;;;;;;;0.60;0.60;;;20.10;99.90;;;;;;5013798;28;20658;-71
2022/04/26 04:29:46;;;;;;;1.33;0.73;;;20.20;99.90;;;;;;5014012;28;20214;-78
2022/04/26 04:32:16;;;;;;;0.50;0.50;;;20.20;99.90;;;;;;5013514;28;20650;-78
2022/04/26 04:34:47;;;;;;;1.27;0.60;;;20.20;99.90;;;;;;5012036;28;20206;-73
2022/04/26 04:37:19;;;;;;;3.00;0.70;;;20.20;99.90;;;;;;5016342;28;20607;-75
2022/04/26 04:39:50;;;;;;;0.50;0.50;;;20.20;99.90;;;;;;5018358;28;20221;-78
2022/04/26 04:42:21;;;;;;;1.50;0.60;;;20.10;99.90;;;;;;5030458;28;20564;-71
2022/04/26 04:44:52;;;;;;;1.33;0.68;;;20.10;99.90;;;;;;5033126;28;20218;-79
2022/04/26 04:47:22;;;;;;;2.22;0.60;;;20.10;99.90;;;;;;5030661;28;20246;-80
2022/04/26 04:49:53;;;;;;;1.65;0.65;;;20.20;99.90;;;;;;5022452;28;20584;-71
2022/04/26 04:52:25;;;;;;;1.30;0.70;;;20.20;99.90;;;;;;5010157;28;20297;-79
2022/04/26 04:54:56;;;;;;;1.42;0.73;;;20.20;99.90;;;;;;5011017;28;20206;-80
2022/04/26 04:57:27;;;;;;;1.40;0.70;;;20.10;99.90;;;;;;5024536;28;20194;-81
2022/04/26 04:59:57;;;;;;;0.98;0.55;;;20.20;99.90;;;;;;5011979;28;20187;-71
2022/04/26 05:02:28;;;;;;;1.58;0.77;;;20.10;99.90;;;;;;5009777;28;20190;-77
2022/04/26 05:04:59;;;;;;;1.92;0.60;;;20.20;99.90;;;;;;5017712;28;20211;-82
2022/04/26 05:07:31;;;;;;;1.60;0.75;;;20.20;99.90;;;;;;5019151;28;20194;-82
2022/04/26 05:10:02;;;;;;;2.58;0.88;;;20.20;99.90;;;;;;5000589;28;20206;-82
2022/04/26 05:12:32;;;;;;;1.00;0.60;;;20.20;99.90;;;;;;5012138;28;20191;-80
2022/04/26 05:15:03;;;;;;;1.60;0.63;;;20.20;99.90;;;;;;5013691;28;20231;-82
2022/04/26 05:17:34;;;;;;;2.15;0.60;;;20.20;99.90;;;;;;5009732;28;20206;-83
2022/04/26 05:20:04;;;;;;;2.55;0.70;;;20.20;99.90;;;;;;5016090;28;20635;-81
2022/04/26 05:24:53;;;;;;;1.13;0.60;;;20.10;99.90;;;;;;5016765;28;20191;-82
2022/04/26 05:25:26;;;;;;;1.08;0.60;;;20.10;99.90;;;;;;5016881;28;20272;-74
2022/04/26 05:27:57;;;;;;;1.00;0.90;;;20.10;99.90;;;;;;5016713;28;20198;-74
2022/04/26 05:30:27;;;;;;;2.00;0.93;;;20.10;99.90;;;;;;5016349;28;20238;-74
2022/04/26 05:32:58;;;;;;;3.20;1.25;;;20.10;99.90;;;;;;5013202;28;20249;-75
2022/04/26 05:35:29;;;;;;;2.50;0.90;;;20.10;99.90;;;;;;5016503;28;20233;-72
2022/04/26 05:38:01;;;;;;;1.65;0.80;;;20.00;99.90;;;;;;5015999;28;20202;-73
2022/04/26 05:40:32;;;;;;;3.17;0.70;;;20.00;99.90;;;;;;5016245;28;20631;-72
2022/04/26 05:43:02;;;;;;;1.02;0.70;;;20.00;99.90;;;;;;5016330;28;20241;-72
2022/04/26 05:45:33;;;;;;;2.65;0.70;;;20.00;99.90;;;;;;5016239;28;20222;-70
2022/04/26 05:48:03;;;;;;;1.20;0.70;;;20.00;99.90;;;;;;5016229;28;20666;-72
2022/04/26 05:50:34;;;;;;;2.85;0.88;;;20.00;99.90;;;;;;5015887;28;20316;-74
2022/04/26 05:53:07;;;;;;;2.47;0.90;;;19.90;99.90;;;;;;5016006;28;20230;-78
2022/04/26 05:55:38;;;;;;;5.10;0.80;;;19.90;99.90;;;;;;5015399;28;20245;-79
2022/04/26 05:58:09;;;;;;;3.45;1.10;;;19.90;99.90;;;;;;5011363;28;20249;-78
2022/04/26 06:00:40;;;;;;;1.42;0.80;;;19.90;99.90;;;;;;5015672;28;20188;-80
2022/04/26 06:03:10;;;;;;;2.88;0.90;;;19.80;99.90;;;;;;5015742;28;20187;-71
2022/04/26 06:05:41;;;;;;;3.30;0.80;;;19.80;99.90;;;;;;5015393;28;20227;-72
2022/04/26 06:08:14;;;;;;;3.05;1.00;;;19.80;99.90;;;;;;5015089;28;20222;-77
2022/04/26 06:10:44;;;;;;;1.77;0.70;;;19.80;99.90;;;;;;5015704;28;20198;-71
2022/04/26 06:13:15;;;;;;;3.55;0.90;;;19.80;99.90;;;;;;5015345;28;20200;-71
2022/04/26 06:15:45;;;;;;;2.45;1.00;;;19.70;99.90;;;;;;5015426;28;20253;-70
2022/04/26 06:18:16;;;;;;;3.13;1.13;;;19.70;99.90;;;;;;5015345;28;20195;-71
2022/04/26 06:20:47;;;;;;;1.55;0.90;;;19.70;99.90;;;;;;5014848;28;20183;-71
2022/04/26 06:23:19;;;;;;;1.90;0.80;;;19.60;99.90;;;;;;5014999;28;20563;-73
2022/04/26 06:25:50;;;;;;;3.08;1.05;;;19.60;99.90;;;;;;5014878;28;20742;-71
2022/04/26 06:28:20;;;;;;;1.60;0.60;;;19.60;99.90;;;;;;5014931;28;20249;-72
2022/04/26 06:30:51;;;;;;;3.60;1.00;;;19.50;99.90;;;;;;5015271;28;20243;-71
2022/04/26 06:33:21;;;;;;;2.13;0.70;;;19.50;99.90;;;;;;5009267;28;20202;-74
2022/04/26 06:35:52;;;;;;;1.30;0.80;;;19.50;99.90;;;;;;5015393;28;20722;-81
2022/04/26 06:38:25;;;;;;;2.85;0.80;;;19.40;99.90;;;;;;5014655;28;20241;-83
2022/04/26 06:40:56;;;;;;;2.45;0.80;;;19.40;99.90;;;;;;5000953;28;20249;-83
2022/04/26 06:43:27;;;;;;;2.45;0.75;;;19.40;99.90;;;;;;5013245;28;20732;-83
2022/04/26 06:45:58;;;;;;;1.15;0.70;;;19.40;99.90;;;;;;5014113;28;20580;-82
2022/04/26 06:48:30;;;;;;;1.63;0.70;;;19.40;99.90;;;;;;5014291;28;20606;-81
2022/04/26 06:51:01;;;;;;;1.25;0.80;;;19.40;99.90;;;;;;5002529;28;20218;-83
2022/04/26 06:53:34;;;;;;;2.13;0.88;;;19.30;99.90;;;;;;5011640;28;20238;-83
2022/04/26 06:56:05;;;;;;;3.03;1.60;;;19.30;99.90;;;;;;5014855;28;20700;-84
2022/04/26 06:58:36;;;;;;;5.38;2.60;;;19.20;99.90;;;;;;5014336;28;20299;-84
2022/04/26 07:01:06;;;;;;;2.88;1.25;;;19.10;99.90;;;;;;5014501;28;20249;-84
2022/04/26 07:03:37;;;;;;;3.35;1.45;;;19.10;99.90;;;;;;5012900;28;20265;-83
2022/04/26 07:06:08;;;;;;;3.10;1.42;;;19.10;99.90;;;;;;5014919;28;20293;-71
2022/04/26 07:08:40;;;;;;;2.05;1.20;;;19.00;99.90;;;;;;5014056;28;20194;-71
2022/04/26 07:11:11;;;;;;;2.60;1.25;;;19.00;99.90;;;;;;5013545;28;20187;-71
2022/04/26 07:13:41;;;;;;;2.65;1.50;;;19.00;99.90;;;;;;5010785;28;20257;-71
2022/04/26 07:16:12;;;;;;;2.95;1.30;;;19.00;99.90;;;;;;5009740;28;20194;-71
2022/04/26 07:18:43;;;;;;;3.50;1.33;;;19.00;99.90;;;;;;5014398;28;20190;-84
2022/04/26 07:21:13;;;;;;;2.47;1.25;;;19.00;99.90;;;;;;5014230;28;20190;-71
2022/04/26 07:23:46;;;;;;;2.42;1.45;;;18.90;99.90;;;;;;5014395;28;20191;-71
2022/04/26 07:26:17;;;;;;;7.43;2.22;;;18.90;99.90;;;;;;5013901;28;20223;-72
2022/04/26 07:28:47;;;;;;;4.45;2.20;;;18.90;99.90;;;;;;5014041;28;20639;-74
2022/04/26 07:31:18;;;;;;;3.67;1.90;;;18.90;99.90;;;;;;5013338;28;20242;-78
2022/04/26 07:36:35;;;;;;;3.50;1.88;;;18.90;99.90;;;;;;5013988;28;20276;-71
2022/04/26 07:39:08;;;;;;;3.47;1.48;;;18.80;99.90;;;;;;5014056;28;20195;-72
2022/04/26 07:41:38;;;;;;;3.03;1.60;;;18.80;99.90;;;;;;5014384;28;20242;-72
2022/04/26 07:44:09;;;;;;;2.38;1.30;;;18.80;99.90;;;;;;5009126;28;20187;-71
2022/04/26 07:46:41;;;;;;;4.15;1.30;;;18.80;99.90;;;;;;5013088;28;20211;-71
2022/04/26 07:49:12;;;;;;;2.88;1.30;;;18.80;99.90;;;;;;5013671;28;20197;-71
2022/04/26 07:54:13;;;;;;;3.63;1.00;;;18.70;99.90;;;;;;5073378;22;20651;-79
2022/04/26 07:56:44;;;;;;;4.80;1.58;;;18.70;99.90;;;;;;5032453;28;20190;-75
2022/04/26 07:59:16;;;;;;;3.38;1.27;;;18.70;99.90;;;;;;5032441;28;20190;-77
2022/04/26 08:01:47;;;;;;;4.43;1.70;;;18.70;99.90;;;;;;5031798;28;20245;-75
2022/04/26 08:04:17;;;;;;;4.53;1.60;;;18.70;99.90;;;;;;5032959;28;20535;-75
2022/04/26 08:06:48;;;;;;;2.80;1.52;;;18.70;99.90;;;;;;5033526;28;20222;-75
2022/04/26 08:09:21;;;;;;;4.20;1.30;;;18.70;99.90;;;;;;5032208;28;20204;-75
2022/04/26 08:11:51;;;;;;;2.83;1.50;;;18.80;99.90;;;;;;5033350;28;20190;-76
2022/04/26 08:14:22;;;;;;;2.88;1.42;;;18.70;99.90;;;;;;5032452;28;20297;-76
2022/04/26 08:16:53;;;;;;;2.03;1.20;;;18.70;99.90;;;;;;5032404;28;20206;-76
2022/04/26 08:19:24;;;;;;;5.07;1.40;;;18.60;99.90;;;;;;5031737;28;20297;-75
2022/04/26 08:21:55;;;;;;;3.33;1.63;;;18.70;99.90;;;;;;5032922;28;20598;-76
2022/04/26 08:27:29;;;;;;;4.10;1.80;;;18.70;99.90;;;;;;5029798;28;20232;-78
2022/04/26 08:30:00;;;;;;;4.70;1.67;;;18.80;99.90;;;;;;5029413;28;20190;-76
2022/04/26 08:32:39;;;;;;;3.92;1.55;;;18.80;99.90;;;;;;5032296;28;20551;-79
2022/04/26 08:35:11;;;;;;;5.45;1.60;;;18.80;99.90;;;;;;5030612;28;20328;-76
2022/04/26 08:37:42;;;;;;;6.50;1.63;;;18.80;99.90;;;;;;5031600;28;20203;-76
2022/04/26 08:40:15;;;;;;;3.15;1.48;;;18.80;99.90;;;;;;5032353;28;20191;-78
2022/04/26 08:42:47;;;;;;;4.53;1.40;;;18.80;99.90;;;;;;5030935;28;20198;-77
2022/04/26 08:45:18;;;;;;;3.33;1.50;;;18.80;99.90;;;;;;5031906;28;20214;-76
2022/04/26 08:53:26;;;;;;;2.80;1.27;;;18.70;99.90;;;;;;5031643;28;20240;-76
2022/04/26 08:56:00;;;;;;;3.40;1.52;;;18.70;99.90;;;;;;5028542;28;20585;-78
2022/04/26 08:58:33;;;;;;;1.92;1.17;;;18.80;99.90;;;;;;5031820;28;20182;-76
2022/04/26 09:01:09;;;;;;;1.98;1.25;;;18.70;99.90;;;;;;5033087;28;20190;-75
2022/04/26 09:03:40;;;;;;;3.47;1.20;;;18.80;99.90;;;;;;5030059;28;20562;-76
2022/04/26 09:06:13;;;;;;;2.33;1.13;;;18.70;99.90;;;;;;5028710;28;20222;-76
2022/04/26 09:08:46;;;;;;;3.13;1.48;;;18.70;99.90;;;;;;5032892;28;20191;-76
2022/04/26 09:11:34;;;;;;;3.83;1.48;;;18.70;99.90;;;;;;5032893;28;20561;-76
2022/04/26 09:14:05;;;;;;;1.67;0.95;;;18.60;99.90;;;;;;5030897;28;20611;-76
2022/04/26 09:16:40;;;;;;;4.40;1.27;;;18.50;99.90;;;;;;5030601;28;20639;-76
2022/04/26 09:19:11;;;;;;;6.13;1.50;;;18.60;99.90;;;;;;5032869;28;20717;-76
2022/04/26 09:21:56;;;;;;;2.72;1.25;;;18.60;99.90;;;;;;5031973;28;20201;-77
2022/04/26 09:24:27;;;;;;;2.72;1.00;;;18.60;99.90;;;;;;5022055;28;20197;-76
2022/04/26 09:27:18;;;;;;;3.67;0.93;;;18.50;99.90;;;;;;5032087;28;20210;-76
2022/04/26 09:29:50;;;;;;;1.80;0.80;;;18.60;99.90;;;;;;5024217;28;20198;-77
2022/04/26 09:32:23;;;;;;;2.83;0.82;;;18.60;99.90;;;;;;5030590;28;20568;-78
2022/04/26 09:34:54;;;;;;;5.40;0.82;;;18.50;99.90;;;;;;5028588;28;20261;-79
2022/04/26 09:37:24;;;;;;;1.90;0.90;;;18.50;99.90;;;;;;5032060;28;20571;-80
2022/04/26 09:40:08;;;;;;;2.75;0.70;;;18.50;99.90;;;;;;5025742;28;20201;-80
2022/04/26 09:42:41;;;;;;;1.90;0.80;;;18.50;99.90;;;;;;5031070;28;20190;-79
2022/04/26 09:45:15;;;;;;;2.40;1.00;;;18.50;99.90;;;;;;5032287;28;20283;-78
2022/04/26 09:47:47;;;;;;;2.53;0.80;;;18.50;99.90;;;;;;5028323;28;20685;-79
2022/04/26 09:50:19;;;;;;;1.83;0.70;;;18.50;99.90;;;;;;5034603;28;20661;-77
2022/04/26 09:52:49;;;;;;;2.83;0.90;;;18.50;99.90;;;;;;5033581;28;20264;-76
2022/04/26 09:55:22;;;;;;;3.13;0.80;;;18.50;99.90;;;;;;5036057;28;20201;-76
2022/04/26 09:57:57;;;;;;;2.83;0.80;;;18.50;99.90;;;;;;5034982;28;20193;-78
2022/04/26 10:00:27;;;;;;;2.45;0.93;;;18.50;99.90;;;;;;5025316;28;20194;-78
2022/04/26 10:03:02;;;;;;;2.63;1.10;;;18.50;99.90;;;;;;5035296;28;20225;-80
2022/04/26 10:05:38;;;;;;;2.10;0.90;;;18.50;99.90;;;;;;5035558;28;20276;-79
2022/04/26 10:08:12;;;;;;;2.20;0.80;;;18.50;99.90;;;;;;5033161;28;20230;-80
2022/04/26 10:10:43;;;;;;;3.40;1.02;;;18.40;99.90;;;;;;5025388;28;20606;-78
2022/04/26 10:16:09;;;;;;;2.97;0.90;;;18.40;99.90;;;;;;5035018;28;20194;-80
2022/04/26 10:18:53;;;;;;;1.42;0.70;;;18.40;99.90;;;;;;5035384;28;20272;-79
2022/04/26 10:21:49;;;;;;;1.05;0.70;;;18.30;99.90;;;;;;5034722;28;20202;-78
2022/04/26 10:24:25;;;;;;;2.63;0.80;;;18.40;99.90;;;;;;5034219;28;20210;-81
2022/04/26 10:27:16;;;;;;;1.65;0.82;;;18.30;99.90;;;;;;5031566;28;20213;-76
2022/04/26 10:29:53;;;;;;;2.17;0.73;;;18.30;99.90;;;;;;5037452;28;20658;-77
2022/04/26 10:32:34;;;;;;;1.15;0.88;;;18.30;99.90;;;;;;5034629;28;20202;-77
2022/04/26 10:35:32;;;;;;;1.58;0.77;;;18.30;99.90;;;;;;5034973;28;20190;-81
2022/04/26 10:38:17;;;;;;;2.45;0.95;;;18.30;99.90;;;;;;5035112;28;20732;-77
2022/04/26 10:41:11;;;;;;;2.50;1.08;;;18.30;99.90;;;;;;5031759;28;20613;-78
2022/04/26 10:44:02;;;;;;;2.20;0.90;;;18.30;99.90;;;;;;5034285;28;20281;-77
2022/04/26 10:46:35;;;;;;;3.47;1.10;;;18.30;99.90;;;;;;5013151;28;20692;-77
2022/04/26 10:49:49;;;;;;;2.72;1.10;;;18.30;99.90;;;;;;5013317;28;20595;-77
2022/04/26 10:52:40;;;;;;;1.38;0.98;;;18.30;99.90;;;;;;5010564;28;20226;-76
2022/04/26 10:55:19;;;;;;;3.85;1.30;;;18.30;99.90;;;;;;5032885;28;20234;-77
2022/04/26 10:57:53;;;;;;;2.40;1.25;;;18.40;99.90;;;;;;5032821;28;20183;-78
2022/04/26 11:00:32;;;;;;;2.78;1.60;;;18.30;99.90;;;;;;5033503;28;20197;-85
2022/04/26 11:03:09;;;;;;;3.92;1.40;;;18.30;99.90;;;;;;5034766;28;20632;-83
2022/04/26 11:05:40;;;;;;;3.92;1.33;;;18.30;99.90;;;;;;5032501;28;20217;-82
2022/04/26 11:08:10;;;;;;;3.13;1.35;;;18.30;99.90;;;;;;5022834;28;20217;-81
2022/04/26 11:13:37;;;;;;;3.15;1.10;;;18.20;99.90;;;;;;5034646;28;20264;-81
2022/04/26 11:16:15;;;;;;;2.55;1.20;;;18.20;99.90;;;;;;5034783;28;20646;-86
2022/04/26 11:18:48;;;;;;;2.70;1.20;;;18.10;99.90;;;;;;5032991;28;20618;-83
2022/04/26 11:21:19;;;;;;;2.38;1.00;;;18.10;99.90;;;;;;5034053;28;20216;-85
2022/04/26 11:29:38;;;;;;;1.90;1.13;;;18.10;99.90;;;;;;5033552;28;20221;-82
2022/04/26 11:32:09;;;;;;;3.35;1.20;;;18.10;99.90;;;;;;5034217;28;20594;-84
2022/04/26 11:34:50;;;;;;;4.47;1.50;;;18.00;99.90;;;;;;5034314;28;20560;-81
2022/04/26 11:37:21;;;;;;;3.90;1.85;;;18.00;99.90;;;;;;5034081;28;20195;-82
2022/04/26 11:39:52;;;;;;;2.85;1.70;;;18.00;99.90;;;;;;5033846;28;20317;-85
2022/04/26 11:42:24;;;;;;;2.85;1.45;;;18.00;99.90;;;;;;5034336;28;20206;-82
2022/04/26 11:45:06;;;;;;;4.32;1.50;;;17.90;99.90;;;;;;5033862;28;20202;-81
2022/04/26 11:47:48;;;;;;;3.65;1.35;;;17.90;99.90;;;;;;5026601;28;20554;-85
2022/04/26 11:50:22;;;;;;;3.45;1.80;;;17.80;99.90;;;;;;5033950;28;20557;-82
2022/04/26 11:52:55;;;;;;;4.53;1.60;;;17.80;99.90;;;;;;5032661;28;20280;-83
2022/04/26 11:55:33;;;;;;;2.00;1.38;;;17.80;99.90;;;;;;5033657;28;20195;-83
2022/04/26 11:58:20;;;;;;;3.92;1.48;;;17.70;99.90;;;;;;5034037;28;20679;-84
2022/04/26 12:00:56;;;;;;;5.10;2.10;;;17.70;99.90;;;;;;5034009;28;20256;-84
2022/04/26 12:03:28;;;;;;;3.47;1.75;;;17.70;99.90;;;;;;5033384;28;20248;-84
2022/04/26 12:06:02;;;;;;;5.82;1.50;;;17.70;99.90;;;;;;5033390;28;20194;-82
2022/04/26 12:08:37;;;;;;;2.88;1.52;;;17.70;99.90;;;;;;5033493;28;20228;-83
2022/04/26 12:11:20;;;;;;;2.05;1.45;;;17.70;99.90;;;;;;5033423;28;20268;-83
2022/04/26 12:14:02;;;;;;;5.15;1.30;;;17.70;99.90;;;;;;5033104;28;20269;-82
2022/04/26 12:16:34;;;;;;;5.20;1.45;;;17.70;99.90;;;;;;5033318;28;20221;-86
2022/04/26 12:19:05;;;;;;;2.25;1.33;;;17.70;99.90;;;;;;5033619;28;20206;-83
2022/04/26 12:21:51;;;;;;;2.55;1.33;;;17.70;99.90;;;;;;5033080;28;20222;-83
2022/04/26 12:24:23;;;;;;;2.75;1.23;;;17.70;99.90;;;;;;5033636;28;20199;-83
2022/04/26 12:26:55;;;;;;;2.00;1.13;;;17.70;99.90;;;;;;5033442;28;20191;-86
2022/04/26 12:29:27;;;;;;;3.63;1.15;;;17.70;99.90;;;;;;5033670;28;20716;-83
2022/04/26 12:31:58;;;;;;;2.88;1.40;;;17.70;99.90;;;;;;5033012;28;20248;-81
2022/04/26 12:34:31;;;;;;;3.45;1.35;;;17.70;99.90;;;;;;5033647;28;20245;-83
2022/04/26 12:37:07;;;;;;;2.35;1.25;;;17.70;99.90;;;;;;5033312;28;20620;-82
2022/04/26 12:39:48;;;;;;;2.47;1.27;;;17.70;99.90;;;;;;5033469;28;20276;-82
2022/04/26 12:42:30;;;;;;;2.70;1.40;;;17.70;99.90;;;;;;5033312;28;20197;-82
2022/04/26 12:45:02;;;;;;;1.88;1.20;;;17.70;99.90;;;;;;5032871;28;20202;-83
2022/04/26 12:50:31;;;;;;;1.92;1.25;;;17.70;99.90;;;;;;5033211;28;20574;-83
2022/04/26 12:53:06;;;;;;;1.95;1.30;;;17.70;99.90;;;;;;5032390;28;20297;-85
2022/04/26 12:55:38;;;;;;;5.10;1.52;;;17.70;99.90;;;;;;5033294;28;20285;-84
2022/04/26 12:58:09;;;;;;;4.43;1.50;;;17.70;99.90;;;;;;5033162;28;20198;-84
2022/04/26 13:00:41;;;;;;;3.85;1.60;;;17.70;99.90;;;;;;5013483;28;20191;-83
2022/04/26 13:03:13;;;;;;;3.45;1.50;;;17.70;99.90;;;;;;5013788;28;20286;-82
2022/04/26 13:05:45;;;;;;;3.30;1.70;;;17.70;99.90;;;;;;5020151;28;20198;-82
2022/04/26 13:08:18;;;;;;;4.72;1.25;;;17.70;99.90;;;;;;5032730;28;20218;-83
2022/04/26 13:10:53;;;;;;;2.92;1.50;;;17.70;99.90;;;;;;5032254;28;20194;-86
2022/04/26 13:13:55;;;;;;;3.55;1.48;;;17.70;99.90;;;;;;5032738;28;20197;-84
2022/04/26 13:16:26;;;;;;;2.72;1.52;;;17.70;99.90;;;;;;5031867;28;20186;-85
2022/04/26 13:18:56;;;;;;;3.60;1.42;;;17.70;99.90;;;;;;5032429;28;20191;-86
2022/04/26 13:21:34;;;;;;;3.60;1.70;;;17.70;99.90;;;;;;5032227;28;20187;-86
2022/04/26 13:24:07;;;;;;;3.42;1.50;;;17.80;99.90;;;;;;5034545;28;20229;-85
2022/04/26 13:26:37;;;;;;;3.42;1.67;;;17.80;99.90;;;;;;5033753;28;20194;-86
2022/04/26 13:29:08;;;;;;;2.00;1.55;;;17.80;99.90;;;;;;5035481;28;20206;-85
2022/04/26 13:31:39;;;;;;;3.55;1.73;;;17.80;99.90;;;;;;5035544;28;20752;-85
2022/04/26 13:34:10;;;;;;;4.00;1.45;;;17.80;99.90;;;;;;5031792;28;20202;-83
2022/04/26 13:36:41;;;;;;;1.70;1.40;;;17.80;99.90;;;;;;5033965;28;20194;-82
2022/04/26 13:39:13;;;;;;;5.45;1.50;;;17.70;99.90;;;;;;5035254;28;20248;-81
2022/04/26 13:41:44;;;;;;;1.98;1.48;;;17.70;99.90;;;;;;5032841;28;20665;-84
2022/04/26 13:44:14;;;;;;;4.65;1.80;;;17.70;99.90;;;;;;5031709;28;20210;-85
2022/04/26 13:46:45;;;;;;;3.15;1.55;;;17.70;99.90;;;;;;5032971;28;20264;-83
2022/04/26 13:49:15;;;;;;;2.90;1.88;;;17.70;99.90;;;;;;5032441;28;20269;-82
2022/04/26 13:51:46;;;;;;;3.72;1.75;;;17.70;99.90;;;;;;5032571;28;20214;-81
2022/04/26 13:54:19;;;;;;;4.35;1.70;;;17.70;99.90;;;;;;5034050;28;20759;-83
2022/04/26 13:56:50;;;;;;;3.15;1.65;;;17.70;99.90;;;;;;5034551;28;20260;-81
2022/04/26 13:59:20;;;;;;;3.08;2.03;;;17.70;99.90;;;;;;5032235;28;20194;-80
2022/04/26 14:01:51;;;;;;;3.70;1.80;;;17.70;99.90;;;;;;5034532;28;20360;-80
2022/04/26 14:04:22;;;;;;;5.75;2.05;;;17.70;99.90;;;;;;5028963;28;20221;-81
2022/04/26 14:06:53;;;;;;;3.92;1.75;;;17.70;99.90;;;;;;5034630;28;20652;-81
2022/04/26 14:09:25;;;;;;;3.30;2.08;;;17.70;99.90;;;;;;5032296;28;20210;-81
2022/04/26 14:11:56;;;;;;;3.35;1.95;;;17.70;99.90;;;;;;5033750;28;20256;-81
2022/04/26 14:22:54;;;;;;;5.53;2.28;;;17.70;99.90;;;;;;5034226;28;20194;-81
2022/04/26 14:25:28;;;;;;;6.10;2.30;;;17.60;99.90;;;;;;5032482;28;20197;-81
2022/04/26 14:28:00;;;;;;;5.68;2.40;;;17.70;99.90;;;;;;5034476;28;20203;-82
2022/04/26 14:30:31;;;;;;;6.05;2.13;;;17.70;99.90;;;;;;5034817;28;20182;-82
2022/04/26 14:33:01;;;;;;;4.20;1.90;;;17.70;99.90;;;;;;5028591;28;20195;-83
2022/04/26 14:35:32;;;;;;;4.80;2.20;;;17.60;99.90;;;;;;5033235;28;20232;-82
2022/04/26 14:38:03;;;;;;;4.60;2.10;;;17.60;99.90;;;;;;5032150;28;20198;-83
2022/04/26 14:40:35;;;;;;;5.22;1.80;;;17.70;99.90;;;;;;5034254;28;20186;-82
2022/04/26 14:43:06;;;;;;;4.45;2.30;;;17.70;99.90;;;;;;5032652;28;20190;-83
2022/04/26 14:45:45;;;;;;;3.35;2.10;;;17.70;99.90;;;;;;5034805;28;20260;-85
2022/04/26 14:48:17;;;;;;;4.03;2.10;;;17.60;99.90;;;;;;5034405;28;20221;-85
2022/04/26 14:50:48;;;;;;;4.63;2.22;;;17.60;99.90;;;;;;5033688;28;20190;-85
2022/04/26 14:53:19;;;;;;;3.47;2.13;;;17.60;99.90;;;;;;5029215;28;20230;-81
2022/04/26 14:55:52;;;;;;;6.75;2.88;;;17.70;99.90;;;;;;5034169;28;20197;-82
2022/04/26 14:58:22;;;;;;;4.82;2.28;;;17.60;99.90;;;;;;5034205;28;20272;-81
2022/04/26 15:00:54;;;;;;;3.90;2.67;;;17.60;99.90;;;;;;5034388;28;20251;-83
2022/04/26 15:03:25;;;;;;;4.78;3.10;;;17.60;99.90;;;;;;5033924;28;20226;-81
2022/04/26 15:05:56;;;;;;;5.72;3.38;;;17.60;99.90;;;;;;5030750;28;20230;-81
2022/04/26 15:11:15;;;;;;;5.97;3.15;;;17.60;99.90;;;;;;5032637;28;20561;-83
2022/04/26 15:16:42;;;;;;;5.18;3.17;;;17.60;99.90;;;;;;5006656;28;20198;-85
2022/04/26 15:19:14;;;;;;;4.53;3.22;;;17.60;99.90;;;;;;5032291;28;20256;-83
2022/04/26 15:21:47;;;;;;;5.43;3.00;;;17.60;99.90;;;;;;5031255;28;20190;-85
2022/04/26 15:24:18;;;;;;;6.75;3.78;;;17.50;99.90;;;;;;5032825;28;20201;-80
2022/04/26 15:26:50;;;;;;;7.35;3.58;;;17.50;99.90;;;;;;5030283;28;20202;-82
2022/04/26 15:29:21;;;;;;;8.23;3.88;;;17.50;99.90;;;;;;5029666;28;20233;-81
2022/04/26 15:31:51;;;;;;;4.53;3.33;;;17.40;99.90;;;;;;5031888;28;20191;-82
2022/04/26 15:34:22;;;;;;;5.85;3.70;;;17.40;99.90;;;;;;5032561;28;20195;-81
2022/04/26 15:36:53;;;;;;;5.82;3.60;;;17.40;99.90;;;;;;5033619;28;20210;-82
2022/04/26 15:39:24;;;;;;;6.30;3.83;;;17.40;99.90;;;;;;5022894;28;20205;-84
2022/04/26 15:41:57;;;;;;;5.22;3.45;;;17.40;99.90;;;;;;5033698;28;20534;-82
2022/04/26 15:44:28;;;;;;;7.13;3.40;;;17.40;99.90;;;;;;5030801;28;20256;-81
2022/04/26 15:46:58;;;;;;;7.22;3.55;;;17.40;99.90;;;;;;5030037;28;20241;-81
2022/04/26 15:49:29;;;;;;;5.43;3.70;;;17.30;99.90;;;;;;5033199;28;20214;-81
2022/04/26 15:52:00;;;;;;;6.22;3.97;;;17.30;99.90;;;;;;5029907;28;20214;-84
2022/04/26 15:54:32;;;;;;;6.80;4.28;;;17.40;99.90;;;;;;5032699;28;20225;-82
2022/04/26 15:57:04;;;;;;;7.10;3.58;;;17.40;99.90;;;;;;5033044;28;20194;-82
2022/04/26 15:59:35;;;;;;;5.72;3.72;;;17.40;99.90;;;;;;5033023;28;20244;-81
2022/04/26 16:02:07;;;;;;;9.60;4.50;;;17.30;99.90;;;;;;5033161;28;20191;-83
2022/04/26 16:04:38;;;;;;;8.13;3.63;;;17.30;99.90;;;;;;5033511;28;20210;-83
2022/04/26 16:07:09;;;;;;;7.43;4.28;;;17.30;99.90;;;;;;5033269;28;20596;-83
2022/04/26 16:20:47;;;;;;;6.50;3.60;;;17.30;99.90;;;;;;5033094;28;20297;-84
2022/04/26 16:23:17;;;;;;;5.88;3.55;;;17.30;99.90;;;;;;5032284;28;20802;-83
2022/04/26 16:25:48;;;;;;;5.47;3.40;;;17.20;99.90;;;;;;5031947;28;20630;-81
2022/04/26 16:28:20;;;;;;;6.63;3.60;;;17.30;99.90;;;;;;5032485;28;20190;-82
2022/04/26 16:30:51;;;;;;;8.35;4.07;;;17.30;99.90;;;;;;5031619;28;20198;-82
2022/04/26 16:33:22;;;;;;;8.15;4.63;;;17.30;99.90;;;;;;5031658;28;20191;-82
2022/04/26 16:35:52;;;;;;;8.43;3.70;;;17.30;99.90;;;;;;5032128;28;20187;-84
2022/04/26 16:38:23;;;;;;;5.50;3.60;;;17.30;99.90;;;;;;5027136;28;20197;-81
2022/04/26 16:40:55;;;;;;;6.93;3.72;;;17.30;99.90;;;;;;5032232;28;20195;-82
2022/04/26 16:43:28;;;;;;;5.18;4.10;;;17.30;99.90;;;;;;5029970;28;20191;-83
2022/04/26 16:46:01;;;;;;;7.18;3.83;;;17.30;99.90;;;;;;5026043;28;20194;-83
2022/04/26 16:48:32;;;;;;;5.03;3.60;;;17.30;99.90;;;;;;5030808;28;20747;-81
2022/04/26 16:51:02;;;;;;;5.70;3.63;;;17.30;99.90;;;;;;5029672;28;20277;-82
2022/04/26 16:53:33;;;;;;;4.80;3.55;;;17.20;99.90;;;;;;5031485;28;20230;-84
2022/04/26 16:56:04;;;;;;;6.85;3.80;;;17.20;99.90;;;;;;5032293;28;20198;-83
2022/04/26 16:58:36;;;;;;;5.68;3.47;;;17.20;99.90;;;;;;5033626;28;20190;-82
2022/04/26 17:01:07;;;;;;;6.20;3.50;;;17.20;99.90;;;;;;5036185;28;20267;-83
2022/04/26 17:03:37;;;;;;;5.95;3.28;;;17.20;99.90;;;;;;5036160;28;20198;-82
2022/04/26 17:06:09;;;;;;;5.30;3.50;;;17.20;99.90;;;;;;5036415;28;20576;-81
2022/04/26 17:08:39;;;;;;;6.15;3.60;;;17.20;99.90;;;;;;5031471;28;20696;-83
2022/04/26 17:13:59;;;;;;;4.68;3.10;;;17.20;99.90;;;;;;5036386;28;20190;-82
2022/04/26 17:16:29;;;;;;;6.57;2.97;;;17.20;99.90;;;;;;5034170;28;20186;-83
2022/04/26 17:19:00;;;;;;;8.23;3.13;;;17.20;99.90;;;;;;5033056;28;20198;-83
2022/04/26 17:21:32;;;;;;;7.88;3.00;;;17.20;99.90;;;;;;5035739;28;20209;-81
2022/04/26 17:24:03;;;;;;;5.18;2.70;;;17.20;99.90;;;;;;5032684;28;20187;-82
2022/04/26 17:26:33;;;;;;;5.20;2.50;;;17.20;99.90;;;;;;5030846;28;20201;-81
2022/04/26 17:29:06;;;;;;;5.25;3.00;;;17.20;99.90;;;;;;5035828;28;20218;-82
2022/04/26 17:31:36;;;;;;;4.20;2.60;;;17.20;99.90;;;;;;5035530;28;20190;-83
2022/04/26 17:34:07;;;;;;;4.70;3.10;;;17.10;99.90;;;;;;5035527;28;20190;-83
2022/04/26 17:36:41;;;;;;;5.93;2.97;;;17.10;99.90;;;;;;5035243;28;20186;-85
2022/04/26 17:39:12;;;;;;;4.30;2.40;;;17.10;99.90;;;;;;5035757;28;20198;-82
2022/04/26 17:41:43;;;;;;;5.22;2.90;;;17.00;99.90;;;;;;5031908;28;20198;-82
2022/04/26 17:44:16;;;;;;;4.75;2.42;;;17.00;99.90;;;;;;5035762;28;20240;-82
2022/04/26 17:46:46;;;;;;;5.32;2.92;;;17.00;99.90;;;;;;5034264;28;20190;-82
2022/04/26 17:49:17;;;;;;;5.07;3.10;;;17.00;99.90;;;;;;5033462;28;20712;-82